createdAt,value
2018-06-01T00:00:15.372Z,25.90
2018-06-01T00:01:15.276Z,26.90
2018-06-01T00:02:15.329Z,27.20
2018-06-01T00:03:15.290Z,26.40
2018-06-01T00:04:15.187Z,27.50
2018-06-01T00:05:15.130Z,26.90
2018-06-01T00:06:15.089Z,28.20
2018-06-01T00:07:15.061Z,26.50
2018-06-01T00:08:15.096Z,27.20
2018-06-01T00:09:15.032Z,26.40
2018-06-01T00:10:14.958Z,27.60
2018-06-01T00:11:14.922Z,27.40
2018-06-01T00:12:14.892Z,27.30
2018-06-01T00:13:14.900Z,27.00
2018-06-01T00:14:14.833Z,26.30
2018-06-01T00:15:26.380Z,26.60
2018-06-01T00:16:14.748Z,27.20
2018-06-01T00:17:26.301Z,27.10
2018-06-01T00:18:14.670Z,25.50
2018-06-01T00:19:14.686Z,25.70
2018-06-01T00:20:14.635Z,25.60
2018-06-01T00:21:14.615Z,25.60
2018-06-01T00:22:14.526Z,26.70
2018-06-01T00:23:14.507Z,25.70
2018-06-01T00:24:14.464Z,26.40
2018-06-01T00:25:14.735Z,26.40
2018-06-01T00:26:15.480Z,25.40
2018-06-01T00:27:14.339Z,25.50
2018-06-01T00:28:14.320Z,24.30
2018-06-01T00:29:14.273Z,27.30
2018-06-01T00:30:14.227Z,27.60
2018-06-01T00:31:14.214Z,27.60
2018-06-01T00:32:14.185Z,28.70
2018-06-01T00:33:14.106Z,28.40
2018-06-01T00:34:14.108Z,28.10
2018-06-01T00:35:14.031Z,27.50
2018-06-01T00:36:13.999Z,26.60
2018-06-01T00:37:25.150Z,27.40
2018-06-01T00:38:13.940Z,27.30
2018-06-01T00:39:13.952Z,25.50
2018-06-01T00:40:13.933Z,26.60
2018-06-01T00:41:13.819Z,27.00
2018-06-01T00:42:13.819Z,28.30
2018-06-01T00:43:13.751Z,26.70
2018-06-01T00:44:13.802Z,26.30
2018-06-01T00:45:13.705Z,26.70
2018-06-01T00:46:13.678Z,27.00
2018-06-01T00:47:13.641Z,27.10
2018-06-01T00:48:13.573Z,27.00
2018-06-01T00:49:13.544Z,25.10
2018-06-01T00:50:13.533Z,25.70
2018-06-01T00:51:13.478Z,25.90
2018-06-01T00:52:13.423Z,25.00
2018-06-01T00:53:13.383Z,26.60
2018-06-01T00:54:13.357Z,25.10
2018-06-01T00:55:13.454Z,25.50
2018-06-01T00:56:13.276Z,26.50
2018-06-01T00:57:26.079Z,24.10
2018-06-01T00:58:13.224Z,25.50
2018-06-01T00:59:13.236Z,24.80
2018-06-01T01:00:13.406Z,25.30
2018-06-01T01:01:22.909Z,24.80
2018-06-01T01:02:13.084Z,25.90
2018-06-01T01:03:13.049Z,25.50
2018-06-01T01:04:13.013Z,26.10
2018-06-01T01:05:13.729Z,24.90
2018-06-01T01:06:12.950Z,26.20
2018-06-01T01:07:12.859Z,25.30
2018-06-01T01:08:12.831Z,25.30
2018-06-01T01:09:12.796Z,25.80
2018-06-01T01:10:12.761Z,25.40
2018-06-01T01:11:12.752Z,24.70
2018-06-01T01:12:12.736Z,24.60
2018-06-01T01:13:12.661Z,25.40
2018-06-01T01:14:12.613Z,24.60
2018-06-01T01:15:12.593Z,25.10
2018-06-01T01:16:12.573Z,25.30
2018-06-01T01:17:22.919Z,25.10
2018-06-01T01:18:12.488Z,26.20
2018-06-01T01:19:12.550Z,25.80
2018-06-01T01:20:12.405Z,25.80
2018-06-01T01:21:12.409Z,26.00
2018-06-01T01:22:12.347Z,25.10
2018-06-01T01:23:12.336Z,26.50
2018-06-01T01:24:12.255Z,26.20
2018-06-01T01:25:12.253Z,25.90
2018-06-01T01:26:12.174Z,24.50
2018-06-01T01:27:12.192Z,24.10
2018-06-01T01:28:12.109Z,24.10
2018-06-01T01:29:12.085Z,23.70
2018-06-01T01:30:12.029Z,24.40
2018-06-01T01:31:11.996Z,25.60
2018-06-01T01:32:11.992Z,25.00
2018-06-01T01:33:11.938Z,24.50
2018-06-01T01:34:11.904Z,24.40
2018-06-01T01:35:11.853Z,24.00
2018-06-01T01:36:22.521Z,24.20
2018-06-01T01:37:22.616Z,27.60
2018-06-01T01:38:12.284Z,27.20
2018-06-01T01:39:11.987Z,24.80
2018-06-01T01:40:11.709Z,21.50
2018-06-01T01:41:11.622Z,22.50
2018-06-01T01:42:11.655Z,23.90
2018-06-01T01:43:11.588Z,23.00
2018-06-01T01:44:11.531Z,24.00
2018-06-01T01:45:11.512Z,23.70
2018-06-01T01:46:11.509Z,24.00
2018-06-01T01:47:11.406Z,23.30
2018-06-01T01:48:11.400Z,23.60
2018-06-01T01:49:11.341Z,22.80
2018-06-01T01:50:11.312Z,24.20
2018-06-01T01:51:11.300Z,24.40
2018-06-01T01:52:11.231Z,24.40
2018-06-01T01:53:11.227Z,24.30
2018-06-01T01:54:11.148Z,25.10
2018-06-01T01:55:11.127Z,23.80
2018-06-01T01:56:21.762Z,24.00
2018-06-01T01:57:20.371Z,24.00
2018-06-01T01:58:11.067Z,25.40
2018-06-01T01:59:10.998Z,26.30
2018-06-01T02:00:10.952Z,23.90
2018-06-01T02:01:10.910Z,25.60
2018-06-01T02:02:10.970Z,24.40
2018-06-01T02:03:11.177Z,24.50
2018-06-01T02:04:10.781Z,23.30
2018-06-01T02:05:10.748Z,24.80
2018-06-01T02:06:10.718Z,25.80
2018-06-01T02:07:10.681Z,24.20
2018-06-01T02:08:10.674Z,24.20
2018-06-01T02:09:10.644Z,24.50
2018-06-01T02:10:10.574Z,24.80
2018-06-01T02:11:10.539Z,24.10
2018-06-01T02:12:10.499Z,24.50
2018-06-01T02:13:21.923Z,24.30
2018-06-01T02:14:10.431Z,24.90
2018-06-01T02:15:10.540Z,22.80
2018-06-01T02:16:21.834Z,25.30
2018-06-01T02:17:10.356Z,25.00
2018-06-01T02:18:10.582Z,24.80
2018-06-01T02:19:10.266Z,25.40
2018-06-01T02:20:10.250Z,25.10
2018-06-01T02:21:10.170Z,26.20
2018-06-01T02:22:10.128Z,25.30
2018-06-01T02:23:10.143Z,25.30
2018-06-01T02:24:10.079Z,26.60
2018-06-01T02:25:10.036Z,25.20
2018-06-01T02:26:09.992Z,25.40
2018-06-01T02:27:09.959Z,25.30
2018-06-01T02:28:09.928Z,26.70
2018-06-01T02:29:09.910Z,24.80
2018-06-01T02:30:09.906Z,24.60
2018-06-01T02:31:09.808Z,24.90
2018-06-01T02:32:09.794Z,25.70
2018-06-01T02:33:09.739Z,25.40
2018-06-01T02:34:09.713Z,26.90
2018-06-01T02:35:09.702Z,27.50
2018-06-01T02:36:21.009Z,27.00
2018-06-01T02:37:09.617Z,28.20
2018-06-01T02:38:09.555Z,27.00
2018-06-01T02:39:09.538Z,24.60
2018-06-01T02:40:09.499Z,25.90
2018-06-01T02:41:09.497Z,25.00
2018-06-01T02:42:09.422Z,27.10
2018-06-01T02:43:09.573Z,25.90
2018-06-01T02:44:10.004Z,26.40
2018-06-01T02:45:09.326Z,26.70
2018-06-01T02:46:09.309Z,28.00
2018-06-01T02:47:09.213Z,28.10
2018-06-01T02:48:09.228Z,28.80
2018-06-01T02:49:09.194Z,27.50
2018-06-01T02:50:09.140Z,28.70
2018-06-01T02:51:09.141Z,29.30
2018-06-01T02:52:09.037Z,28.60
2018-06-01T02:53:08.993Z,29.80
2018-06-01T02:54:08.958Z,29.20
2018-06-01T02:55:08.969Z,29.10
2018-06-01T02:56:08.903Z,29.50
2018-06-01T02:57:08.922Z,29.00
2018-06-01T02:58:08.893Z,30.40
2018-06-01T02:59:08.783Z,29.50
2018-06-01T03:00:08.792Z,30.20
2018-06-01T03:01:08.744Z,31.90
2018-06-01T03:02:08.671Z,31.30
2018-06-01T03:03:08.680Z,33.30
2018-06-01T03:04:08.621Z,34.00
2018-06-01T03:05:08.573Z,33.40
2018-06-01T03:06:08.605Z,33.80
2018-06-01T03:07:08.539Z,34.40
2018-06-01T03:08:08.460Z,34.30
2018-06-01T03:09:08.482Z,32.90
2018-06-01T03:10:08.385Z,34.60
2018-06-01T03:11:08.393Z,34.40
2018-06-01T03:12:08.356Z,35.00
2018-06-01T03:13:08.278Z,34.50
2018-06-01T03:14:08.287Z,35.00
2018-06-01T03:15:08.254Z,34.80
2018-06-01T03:16:08.210Z,34.90
2018-06-01T03:17:08.133Z,35.20
2018-06-01T03:18:08.107Z,35.60
2018-06-01T03:19:08.052Z,34.90
2018-06-01T03:20:08.070Z,36.70
2018-06-01T03:21:08.032Z,36.50
2018-06-01T03:22:07.992Z,36.20
2018-06-01T03:23:07.904Z,36.80
2018-06-01T03:24:07.877Z,35.40
2018-06-01T03:25:07.833Z,36.80
2018-06-01T03:26:07.881Z,37.10
2018-06-01T03:27:07.788Z,37.20
2018-06-01T03:28:07.729Z,37.50
2018-06-01T03:29:07.739Z,38.70
2018-06-01T03:30:07.680Z,38.00
2018-06-01T03:31:07.617Z,39.00
2018-06-01T03:32:07.603Z,37.70
2018-06-01T03:33:07.541Z,36.60
2018-06-01T03:34:07.520Z,37.50
2018-06-01T03:35:07.509Z,37.10
2018-06-01T03:36:07.448Z,35.20
2018-06-01T03:37:07.490Z,35.20
2018-06-01T03:38:07.369Z,35.70
2018-06-01T03:39:07.371Z,36.20
2018-06-01T03:40:07.308Z,37.50
2018-06-01T03:41:07.285Z,35.90
2018-06-01T03:42:07.226Z,37.80
2018-06-01T03:43:07.218Z,36.60
2018-06-01T03:44:07.142Z,37.50
2018-06-01T03:45:07.194Z,38.60
2018-06-01T03:46:07.105Z,39.40
2018-06-01T03:47:07.041Z,40.80
2018-06-01T03:48:07.030Z,40.10
2018-06-01T03:49:06.971Z,40.30
2018-06-01T03:50:06.942Z,39.90
2018-06-01T03:51:06.908Z,40.90
2018-06-01T03:52:06.851Z,40.10
2018-06-01T03:53:06.859Z,39.50
2018-06-01T03:54:06.803Z,38.50
2018-06-01T03:55:06.757Z,38.50
2018-06-01T03:56:06.701Z,40.70
2018-06-01T03:57:06.667Z,40.20
2018-06-01T03:58:06.679Z,39.60
2018-06-01T03:59:06.609Z,40.00
2018-06-01T04:00:06.647Z,39.60
2018-06-01T04:01:06.567Z,38.80
2018-06-01T04:02:06.489Z,39.80
2018-06-01T04:03:06.504Z,39.70
2018-06-01T04:04:06.414Z,40.70
2018-06-01T04:05:06.384Z,42.00
2018-06-01T04:06:06.417Z,40.20
2018-06-01T04:07:06.340Z,41.80
2018-06-01T04:08:06.288Z,41.80
2018-06-01T04:09:06.263Z,41.60
2018-06-01T04:10:06.202Z,43.00
2018-06-01T04:11:06.185Z,41.50
2018-06-01T04:12:06.144Z,41.80
2018-06-01T04:13:06.097Z,42.60
2018-06-01T04:14:06.084Z,42.80
2018-06-01T04:15:06.020Z,44.40
2018-06-01T04:16:06.013Z,43.50
2018-06-01T04:17:05.949Z,41.20
2018-06-01T04:18:05.914Z,42.70
2018-06-01T04:19:05.893Z,44.20
2018-06-01T04:20:05.840Z,44.30
2018-06-01T04:21:05.815Z,44.50
2018-06-01T04:22:05.793Z,46.00
2018-06-01T04:23:05.759Z,44.00
2018-06-01T04:24:05.728Z,46.20
2018-06-01T04:25:05.666Z,46.70
2018-06-01T04:26:05.626Z,45.70
2018-06-01T04:27:05.659Z,44.70
2018-06-01T04:28:05.552Z,46.90
2018-06-01T04:29:05.535Z,45.90
2018-06-01T04:30:05.494Z,44.70
2018-06-01T04:31:05.466Z,44.20
2018-06-01T04:32:05.443Z,45.60
2018-06-01T04:33:05.366Z,45.70
2018-06-01T04:34:17.860Z,45.00
2018-06-01T04:35:05.341Z,44.90
2018-06-01T04:36:05.295Z,45.40
2018-06-01T04:37:05.252Z,43.40
2018-06-01T04:38:05.217Z,45.50
2018-06-01T04:39:05.196Z,43.00
2018-06-01T04:40:05.103Z,44.40
2018-06-01T04:41:05.114Z,43.40
2018-06-01T04:42:05.151Z,43.40
2018-06-01T04:43:05.032Z,42.80
2018-06-01T04:44:05.552Z,41.50
2018-06-01T04:45:04.948Z,44.10
2018-06-01T04:46:04.887Z,45.60
2018-06-01T04:47:04.847Z,45.40
2018-06-01T04:48:04.817Z,45.70
2018-06-01T04:49:04.799Z,45.30
2018-06-01T04:50:04.808Z,45.30
2018-06-01T04:51:04.788Z,45.90
2018-06-01T04:52:05.459Z,45.60
2018-06-01T04:53:04.623Z,45.60
2018-06-01T04:54:04.631Z,48.50
2018-06-01T04:55:04.590Z,48.60
2018-06-01T04:56:04.583Z,46.30
2018-06-01T04:57:04.522Z,47.60
2018-06-01T04:58:04.444Z,46.20
2018-06-01T04:59:17.426Z,46.10
2018-06-01T05:00:05.340Z,46.90
2018-06-01T05:01:04.605Z,48.60
2018-06-01T05:02:05.209Z,54.50
2018-06-01T05:03:05.113Z,57.30
2018-06-01T05:04:05.177Z,56.70
2018-06-01T05:05:05.092Z,76.30
2018-06-01T05:06:04.993Z,76.30
2018-06-01T05:07:05.004Z,77.10
2018-06-01T05:08:04.822Z,67.80
2018-06-01T05:09:04.893Z,65.20
2018-06-01T05:10:04.014Z,77.40
2018-06-01T05:11:16.445Z,79.50
2018-06-01T05:12:04.807Z,99.90
2018-06-01T05:13:04.608Z,116.50
2018-06-01T05:14:04.820Z,117.70
2018-06-01T05:15:04.552Z,152.80
2018-06-01T05:16:03.933Z,151.40
2018-06-01T05:17:03.847Z,133.30
2018-06-01T05:18:04.380Z,150.80
2018-06-01T05:19:04.015Z,153.50
2018-06-01T05:20:03.687Z,187.20
2018-06-01T05:21:15.963Z,173.50
2018-06-01T05:22:03.582Z,187.70
2018-06-01T05:23:04.343Z,171.20
2018-06-01T05:24:03.488Z,198.00
2018-06-01T05:25:04.177Z,183.90
2018-06-01T05:26:03.422Z,236.30
2018-06-01T05:27:04.299Z,237.50
2018-06-01T05:28:03.465Z,263.70
2018-06-01T05:29:03.306Z,229.40
2018-06-01T05:30:03.568Z,217.00
2018-06-01T05:31:03.238Z,249.90
2018-06-01T05:32:03.236Z,246.00
2018-06-01T05:33:03.151Z,198.50
2018-06-01T05:34:03.140Z,197.80
2018-06-01T05:35:14.643Z,212.70
2018-06-01T05:36:13.715Z,221.90
2018-06-01T05:37:04.010Z,287.70
2018-06-01T05:38:13.036Z,300.20
2018-06-01T05:39:02.970Z,264.50
2018-06-01T05:40:03.516Z,359.50
2018-06-01T05:41:04.768Z,347.80
2018-06-01T05:42:14.079Z,244.80
2018-06-01T05:43:03.397Z,277.30
2018-06-01T05:44:15.233Z,243.40
2018-06-01T05:45:02.766Z,201.20
2018-06-01T05:46:02.665Z,178.10
2018-06-01T05:47:02.693Z,185.00
2018-06-01T05:48:02.664Z,211.10
2018-06-01T05:49:02.581Z,210.30
2018-06-01T05:50:02.555Z,186.20
2018-06-01T05:51:02.510Z,181.30
2018-06-01T05:52:02.449Z,150.40
2018-06-01T05:53:02.452Z,178.50
2018-06-01T05:54:02.406Z,189.80
2018-06-01T05:55:02.344Z,164.60
2018-06-01T05:56:02.291Z,161.30
2018-06-01T05:57:02.317Z,181.60
2018-06-01T05:58:02.250Z,142.40
2018-06-01T05:59:02.205Z,137.30
2018-06-01T06:00:02.149Z,125.90
2018-06-01T06:01:02.137Z,97.00
2018-06-01T06:02:02.093Z,90.90
2018-06-01T06:03:02.106Z,96.70
2018-06-01T06:04:02.023Z,70.40
2018-06-01T06:05:01.996Z,68.90
2018-06-01T06:06:01.931Z,70.20
2018-06-01T06:07:01.911Z,59.80
2018-06-01T06:08:12.115Z,62.40
2018-06-01T06:09:01.827Z,68.80
2018-06-01T06:10:01.884Z,62.10
2018-06-01T06:11:01.758Z,68.50
2018-06-01T06:12:01.733Z,59.50
2018-06-01T06:13:01.684Z,58.00
2018-06-01T06:14:01.690Z,61.50
2018-06-01T06:15:01.642Z,56.80
2018-06-01T06:16:01.592Z,62.80
2018-06-01T06:17:01.536Z,53.90
2018-06-01T06:18:01.489Z,56.10
2018-06-01T06:19:01.488Z,52.30
2018-06-01T06:20:01.425Z,53.30
2018-06-01T06:21:01.396Z,53.50
2018-06-01T06:22:01.369Z,57.00
2018-06-01T06:23:01.308Z,54.30
2018-06-01T06:24:01.292Z,53.80
2018-06-01T06:25:01.238Z,66.70
2018-06-01T06:26:01.207Z,58.40
2018-06-01T06:27:01.169Z,66.70
2018-06-01T06:28:01.131Z,69.80
2018-06-01T06:29:01.115Z,49.30
2018-06-01T06:30:01.055Z,57.50
2018-06-01T06:31:01.019Z,51.50
2018-06-01T06:32:00.981Z,54.50
2018-06-01T06:33:00.949Z,49.10
2018-06-01T06:34:00.912Z,53.90
2018-06-01T06:35:00.891Z,51.60
2018-06-01T06:36:00.863Z,54.90
2018-06-01T06:37:00.796Z,53.40
2018-06-01T06:38:00.758Z,55.60
2018-06-01T06:39:00.724Z,59.00
2018-06-01T06:40:00.722Z,58.90
2018-06-01T06:41:00.661Z,68.20
2018-06-01T06:42:00.627Z,69.40
2018-06-01T06:43:11.780Z,94.70
2018-06-01T06:44:00.551Z,76.10
2018-06-01T06:45:00.531Z,73.30
2018-06-01T06:46:00.476Z,70.50
2018-06-01T06:47:00.473Z,73.20
2018-06-01T06:48:00.389Z,71.70
2018-06-01T06:49:00.378Z,60.00
2018-06-01T06:50:00.352Z,60.80
2018-06-01T06:51:00.299Z,61.30
2018-06-01T06:52:00.253Z,57.00
2018-06-01T06:53:00.222Z,53.80
2018-06-01T06:54:00.176Z,53.60
2018-06-01T06:55:10.554Z,55.10
2018-06-01T06:56:00.104Z,52.40
2018-06-01T06:57:00.090Z,54.30
2018-06-01T06:58:00.023Z,50.60
2018-06-01T06:59:00.027Z,49.70
2018-06-01T06:59:59.956Z,49.90
2018-06-01T07:00:59.940Z,48.00
2018-06-01T07:01:59.891Z,50.00
2018-06-01T07:02:59.855Z,59.10
2018-06-01T07:03:59.811Z,55.10
2018-06-01T07:04:59.786Z,55.60
2018-06-01T07:05:59.777Z,57.30
2018-06-01T07:06:59.730Z,62.20
2018-06-01T07:07:59.686Z,62.50
2018-06-01T07:08:59.639Z,59.30
2018-06-01T07:09:59.611Z,56.50
2018-06-01T07:10:59.599Z,49.70
2018-06-01T07:11:59.547Z,54.00
2018-06-01T07:12:59.536Z,54.20
2018-06-01T07:13:59.477Z,62.20
2018-06-01T07:14:59.427Z,60.90
2018-06-01T07:15:59.414Z,60.60
2018-06-01T07:16:59.357Z,59.70
2018-06-01T07:17:59.316Z,61.70
2018-06-01T07:18:59.280Z,59.50
2018-06-01T07:19:59.236Z,53.50
2018-06-01T07:20:59.232Z,54.90
2018-06-01T07:21:59.199Z,55.50
2018-06-01T07:22:59.154Z,59.90
2018-06-01T07:23:59.090Z,53.30
2018-06-01T07:24:59.100Z,55.00
2018-06-01T07:25:59.014Z,56.40
2018-06-01T07:26:59.013Z,56.20
2018-06-01T07:27:58.964Z,60.80
2018-06-01T07:28:58.904Z,61.90
2018-06-01T07:29:58.873Z,63.50
2018-06-01T07:30:58.886Z,64.50
2018-06-01T07:31:58.848Z,63.60
2018-06-01T07:32:58.791Z,68.70
2018-06-01T07:33:58.736Z,78.30
2018-06-01T07:34:58.698Z,66.60
2018-06-01T07:35:58.670Z,78.00
2018-06-01T07:36:58.647Z,75.10
2018-06-01T07:37:58.619Z,89.80
2018-06-01T07:38:58.566Z,75.10
2018-06-01T07:39:58.510Z,83.20
2018-06-01T07:40:58.543Z,90.90
2018-06-01T07:41:58.487Z,95.00
2018-06-01T07:42:58.401Z,98.20
2018-06-01T07:43:58.382Z,93.50
2018-06-01T07:44:58.369Z,82.40
2018-06-01T07:45:58.330Z,74.20
2018-06-01T07:46:58.338Z,70.80
2018-06-01T07:47:58.299Z,85.20
2018-06-01T07:48:58.209Z,90.00
2018-06-01T07:49:58.199Z,92.50
2018-06-01T07:50:58.117Z,88.30
2018-06-01T07:51:58.144Z,76.40
2018-06-01T07:52:58.093Z,96.30
2018-06-01T07:53:58.036Z,87.50
2018-06-01T07:54:57.970Z,85.30
2018-06-01T07:55:57.929Z,98.00
2018-06-01T07:56:57.899Z,90.10
2018-06-01T07:57:57.975Z,98.90
2018-06-01T07:58:57.857Z,111.60
2018-06-01T07:59:57.910Z,118.20
2018-06-01T08:00:57.776Z,121.90
2018-06-01T08:01:57.720Z,126.00
2018-06-01T08:02:57.727Z,122.40
2018-06-01T08:03:57.656Z,133.20
2018-06-01T08:04:57.645Z,131.60
2018-06-01T08:05:57.604Z,116.70
2018-06-01T08:06:57.543Z,122.80
2018-06-01T08:07:57.536Z,114.70
2018-06-01T08:08:57.517Z,109.00
2018-06-01T08:09:57.443Z,96.40
2018-06-01T08:10:57.395Z,103.20
2018-06-01T08:11:57.400Z,111.00
2018-06-01T08:12:57.373Z,111.50
2018-06-01T08:13:57.374Z,97.80
2018-06-01T08:14:57.254Z,97.30
2018-06-01T08:15:57.391Z,103.60
2018-06-01T08:16:57.225Z,103.00
2018-06-01T08:17:57.147Z,96.50
2018-06-01T08:18:57.136Z,100.30
2018-06-01T08:19:57.076Z,91.90
2018-06-01T08:20:57.111Z,88.00
2018-06-01T08:21:56.985Z,87.50
2018-06-01T08:22:57.090Z,91.40
2018-06-01T08:23:56.962Z,101.20
2018-06-01T08:24:56.917Z,86.60
2018-06-01T08:25:56.915Z,102.30
2018-06-01T08:26:56.883Z,123.40
2018-06-01T08:27:56.945Z,117.30
2018-06-01T08:28:57.793Z,109.10
2018-06-01T08:29:56.734Z,146.70
2018-06-01T08:30:56.661Z,96.10
2018-06-01T08:32:07.567Z,90.30
2018-06-01T08:32:56.624Z,109.00
2018-06-01T08:33:56.581Z,102.40
2018-06-01T08:34:56.607Z,85.10
2018-06-01T08:35:57.409Z,91.50
2018-06-01T08:36:56.785Z,96.90
2018-06-01T08:37:56.425Z,107.00
2018-06-01T08:38:56.370Z,160.00
2018-06-01T08:39:56.385Z,173.70
2018-06-01T08:40:56.298Z,194.30
2018-06-01T08:41:56.289Z,183.80
2018-06-01T08:42:56.256Z,148.80
2018-06-01T08:43:56.197Z,155.90
2018-06-01T08:44:56.191Z,132.10
2018-06-01T08:45:56.129Z,127.20
2018-06-01T08:46:56.735Z,142.70
2018-06-01T08:47:56.033Z,171.30
2018-06-01T08:48:56.215Z,278.00
2018-06-01T08:49:56.034Z,203.10
2018-06-01T08:50:55.930Z,274.70
2018-06-01T08:51:55.878Z,255.00
2018-06-01T08:52:55.872Z,239.10
2018-06-01T08:53:55.821Z,229.30
2018-06-01T08:54:55.841Z,202.10
2018-06-01T08:55:55.751Z,183.80
2018-06-01T08:56:55.714Z,188.70
2018-06-01T08:57:55.663Z,168.50
2018-06-01T08:58:55.703Z,195.10
2018-06-01T08:59:55.604Z,180.80
2018-06-01T09:00:55.640Z,248.50
2018-06-01T09:01:55.533Z,364.20
2018-06-01T09:02:55.519Z,489.00
2018-06-01T09:03:55.506Z,432.10
2018-06-01T09:04:55.429Z,450.20
2018-06-01T09:05:55.412Z,429.70
2018-06-01T09:06:55.365Z,393.80
2018-06-01T09:07:55.319Z,255.70
2018-06-01T09:08:55.296Z,259.70
2018-06-01T09:09:55.235Z,189.90
2018-06-01T09:10:55.208Z,220.20
2018-06-01T09:11:55.163Z,254.30
2018-06-01T09:12:55.171Z,287.30
2018-06-01T09:13:55.093Z,199.90
2018-06-01T09:14:55.057Z,200.10
2018-06-01T09:16:05.623Z,205.00
2018-06-01T09:16:55.826Z,204.00
2018-06-01T09:17:54.961Z,227.80
2018-06-01T09:18:54.913Z,187.60
2018-06-01T09:19:55.811Z,171.10
2018-06-01T09:20:55.638Z,171.70
2018-06-01T09:21:55.529Z,180.50
2018-06-01T09:22:55.716Z,177.30
2018-06-01T09:23:55.172Z,174.20
2018-06-01T09:24:55.325Z,157.10
2018-06-01T09:25:54.636Z,220.00
2018-06-01T09:26:54.634Z,195.20
2018-06-01T09:27:54.586Z,169.50
2018-06-01T09:28:54.591Z,194.00
2018-06-01T09:29:54.515Z,158.70
2018-06-01T09:30:54.468Z,236.40
2018-06-01T09:31:54.476Z,172.50
2018-06-01T09:32:54.390Z,255.00
2018-06-01T09:33:54.409Z,353.30
2018-06-01T09:34:54.333Z,164.90
2018-06-01T09:35:54.300Z,230.10
2018-06-01T09:36:54.263Z,155.40
2018-06-01T09:37:54.235Z,162.20
2018-06-01T09:38:54.220Z,159.80
2018-06-01T09:40:06.281Z,178.90
2018-06-01T09:40:54.342Z,173.00
2018-06-01T09:41:54.221Z,175.20
2018-06-01T09:42:54.073Z,142.50
2018-06-01T09:43:54.907Z,145.00
2018-06-01T09:44:53.978Z,179.70
2018-06-01T09:45:53.923Z,137.00
2018-06-01T09:46:53.941Z,129.70
2018-06-01T09:47:53.865Z,151.60
2018-06-01T09:48:53.849Z,116.30
2018-06-01T09:49:53.810Z,105.10
2018-06-01T09:50:53.758Z,111.30
2018-06-01T09:51:53.728Z,168.10
2018-06-01T09:52:53.676Z,124.80
2018-06-01T09:53:53.688Z,166.50
2018-06-01T09:54:53.619Z,152.20
2018-06-01T09:55:53.571Z,134.40
2018-06-01T09:56:53.568Z,128.90
2018-06-01T09:57:53.501Z,143.70
2018-06-01T09:58:53.477Z,122.40
2018-06-01T09:59:53.429Z,159.40
2018-06-01T10:00:53.458Z,174.50
2018-06-01T10:01:53.386Z,155.90
2018-06-01T10:02:53.341Z,132.80
2018-06-01T10:03:53.319Z,173.40
2018-06-01T10:04:53.282Z,153.80
2018-06-01T10:05:53.241Z,180.90
2018-06-01T10:06:53.195Z,194.90
2018-06-01T10:07:53.173Z,129.40
2018-06-01T10:08:53.130Z,131.00
2018-06-01T10:09:53.081Z,147.10
2018-06-01T10:10:53.063Z,122.40
2018-06-01T10:11:53.042Z,175.70
2018-06-01T10:12:52.996Z,150.30
2018-06-01T10:13:52.932Z,122.40
2018-06-01T10:14:52.939Z,143.30
2018-06-01T10:15:52.889Z,123.70
2018-06-01T10:16:52.845Z,180.80
2018-06-01T10:17:52.787Z,135.90
2018-06-01T10:18:52.757Z,131.10
2018-06-01T10:19:52.740Z,128.20
2018-06-01T10:20:52.707Z,144.20
2018-06-01T10:21:52.657Z,132.80
2018-06-01T10:22:52.627Z,141.20
2018-06-01T10:23:52.587Z,104.20
2018-06-01T10:24:52.543Z,125.20
2018-06-01T10:25:52.580Z,117.40
2018-06-01T10:26:52.484Z,138.70
2018-06-01T10:28:03.888Z,101.20
2018-06-01T10:28:53.290Z,122.80
2018-06-01T10:29:53.092Z,98.40
2018-06-01T10:30:53.204Z,106.60
2018-06-01T10:31:53.217Z,112.70
2018-06-01T10:32:52.977Z,69.30
2018-06-01T10:33:52.224Z,73.30
2018-06-01T10:34:52.352Z,59.80
2018-06-01T10:35:52.177Z,58.70
2018-06-01T10:36:53.099Z,60.20
2018-06-01T10:37:52.779Z,59.00
2018-06-01T10:38:52.612Z,65.20
2018-06-01T10:39:52.000Z,54.60
2018-06-01T10:40:51.998Z,69.10
2018-06-01T10:41:51.994Z,73.40
2018-06-01T10:42:51.916Z,73.50
2018-06-01T10:43:51.897Z,74.90
2018-06-01T10:44:51.866Z,77.10
2018-06-01T10:45:51.813Z,91.00
2018-06-01T10:46:51.774Z,83.60
2018-06-01T10:47:51.758Z,60.20
2018-06-01T10:48:51.708Z,63.20
2018-06-01T10:49:51.719Z,70.90
2018-06-01T10:50:51.620Z,54.90
2018-06-01T10:52:03.957Z,58.80
2018-06-01T10:52:52.269Z,65.60
2018-06-01T10:53:52.214Z,70.70
2018-06-01T10:54:51.516Z,79.30
2018-06-01T10:55:51.451Z,91.40
2018-06-01T10:56:51.423Z,76.70
2018-06-01T10:57:51.418Z,63.50
2018-06-01T10:58:51.428Z,62.80
2018-06-01T10:59:52.006Z,63.10
2018-06-01T11:00:51.277Z,64.50
2018-06-01T11:01:51.271Z,75.40
2018-06-01T11:02:51.216Z,90.80
2018-06-01T11:03:51.180Z,92.80
2018-06-01T11:04:51.196Z,92.10
2018-06-01T11:05:51.106Z,78.80
2018-06-01T11:06:51.098Z,102.30
2018-06-01T11:07:51.059Z,98.20
2018-06-01T11:08:51.025Z,76.20
2018-06-01T11:09:51.012Z,81.10
2018-06-01T11:10:50.937Z,78.50
2018-06-01T11:12:03.035Z,76.50
2018-06-01T11:12:51.690Z,90.60
2018-06-01T11:13:51.739Z,71.10
2018-06-01T11:14:50.810Z,76.80
2018-06-01T11:15:50.775Z,83.60
2018-06-01T11:16:50.731Z,89.80
2018-06-01T11:17:50.693Z,79.70
2018-06-01T11:18:50.675Z,81.40
2018-06-01T11:19:50.740Z,86.90
2018-06-01T11:20:50.653Z,91.90
2018-06-01T11:21:51.432Z,94.20
2018-06-01T11:22:51.237Z,96.80
2018-06-01T11:23:50.537Z,82.00
2018-06-01T11:24:50.462Z,110.10
2018-06-01T11:25:50.422Z,110.10
2018-06-01T11:26:50.390Z,101.70
2018-06-01T11:27:50.378Z,110.70
2018-06-01T11:28:50.350Z,90.40
2018-06-01T11:29:50.304Z,85.20
2018-06-01T11:30:50.287Z,88.90
2018-06-01T11:31:50.227Z,78.60
2018-06-01T11:32:50.182Z,81.00
2018-06-01T11:33:50.185Z,80.70
2018-06-01T11:34:50.119Z,85.70
2018-06-01T11:35:50.094Z,82.50
2018-06-01T11:36:50.060Z,79.00
2018-06-01T11:37:50.031Z,82.70
2018-06-01T11:38:50.014Z,74.20
2018-06-01T11:39:49.963Z,75.10
2018-06-01T11:40:49.947Z,69.90
2018-06-01T11:41:49.883Z,75.50
2018-06-01T11:42:49.860Z,78.90
2018-06-01T11:43:49.877Z,75.10
2018-06-01T11:44:49.802Z,74.50
2018-06-01T11:45:49.766Z,76.30
2018-06-01T11:46:49.710Z,79.30
2018-06-01T11:47:49.685Z,89.80
2018-06-01T11:48:49.686Z,79.20
2018-06-01T11:49:49.633Z,77.70
2018-06-01T11:50:49.575Z,82.90
2018-06-01T11:51:49.545Z,87.00
2018-06-01T11:52:49.514Z,85.80
2018-06-01T11:53:49.516Z,84.70
2018-06-01T11:54:49.452Z,87.30
2018-06-01T11:55:49.418Z,84.80
2018-06-01T11:56:49.427Z,80.70
2018-06-01T11:57:49.375Z,85.10
2018-06-01T11:58:49.313Z,79.70
2018-06-01T11:59:49.287Z,86.90
2018-06-01T12:00:49.244Z,88.70
2018-06-01T12:01:49.245Z,88.00
2018-06-01T12:02:49.245Z,85.40
2018-06-01T12:03:49.193Z,95.10
2018-06-01T12:04:49.117Z,87.90
2018-06-01T12:05:49.069Z,97.20
2018-06-01T12:06:49.056Z,87.40
2018-06-01T12:07:49.043Z,87.00
2018-06-01T12:08:48.981Z,78.40
2018-06-01T12:09:48.947Z,79.60
2018-06-01T12:10:48.944Z,86.20
2018-06-01T12:11:48.871Z,87.10
2018-06-01T12:12:48.871Z,81.60
2018-06-01T12:13:48.798Z,85.50
2018-06-01T12:14:48.773Z,75.70
2018-06-01T12:15:48.760Z,90.10
2018-06-01T12:16:48.731Z,80.30
2018-06-01T12:17:48.751Z,78.70
2018-06-01T12:18:48.652Z,83.30
2018-06-01T12:19:48.607Z,94.40
2018-06-01T12:20:48.568Z,80.60
2018-06-01T12:21:48.549Z,77.20
2018-06-01T12:22:48.521Z,77.80
2018-06-01T12:23:48.456Z,80.40
2018-06-01T12:24:48.449Z,78.10
2018-06-01T12:25:48.421Z,81.80
2018-06-01T12:26:48.379Z,80.70
2018-06-01T12:28:00.205Z,78.40
2018-06-01T12:28:48.389Z,79.20
2018-06-01T12:29:48.413Z,89.80
2018-06-01T12:30:48.213Z,81.90
2018-06-01T12:31:48.235Z,83.70
2018-06-01T12:32:48.160Z,83.30
2018-06-01T12:33:48.138Z,89.00
2018-06-01T12:34:48.121Z,87.00
2018-06-01T12:35:48.057Z,84.80
2018-06-01T12:36:48.047Z,87.40
2018-06-01T12:37:47.998Z,88.20
2018-06-01T12:38:47.961Z,99.10
2018-06-01T12:39:47.945Z,91.50
2018-06-01T12:40:47.892Z,95.50
2018-06-01T12:41:47.870Z,96.10
2018-06-01T12:42:47.826Z,90.80
2018-06-01T12:43:47.774Z,88.60
2018-06-01T12:44:47.752Z,88.80
2018-06-01T12:45:47.706Z,90.60